Time;durP1;ratioP1;P1;durP2;ratioP2;P2;SDS_P1;SDS_P2;PMS_P1;PMS_P2;Temp;Humidity;BMP_temperature;BMP_pressure;BME280_temperature;BME280_humidity;BME280_pressure;Samples;Min_cycle;Max_cycle;Signal;HPM_P1;HPM_P2
2022/11/20 00:02:24;;;;;;;29.75;15.93;;;;;;;;;;5053059;28;20074;-63
2022/11/20 00:04:50;;;;;;;28.88;16.75;;;;;;;;;;5052488;28;20024;-64
2022/11/20 00:07:16;;;;;;;29.48;15.85;;;;;;;;;;5053252;28;20027;-66
2022/11/20 00:09:42;;;;;;;28.23;15.50;;;;;;;;;;5053113;28;20029;-65
2022/11/20 00:12:08;;;;;;;30.77;16.58;;;;;;;;;;5053011;28;20025;-66
2022/11/20 00:14:34;;;;;;;28.80;17.00;;;;;;;;;;5052134;28;20503;-65
2022/11/20 00:17:00;;;;;;;28.33;15.43;;;;;;;;;;5053116;28;20048;-65
2022/11/20 00:19:26;;;;;;;27.58;16.42;;;;;;;;;;5052867;28;20021;-65
2022/11/20 00:21:53;;;;;;;30.27;17.08;;;;;;;;;;5053839;28;20029;-64
2022/11/20 00:24:19;;;;;;;29.38;16.08;;;;;;;;;;5052229;28;20529;-64
2022/11/20 00:26:45;;;;;;;33.33;17.40;;;;;;;;;;5066413;28;20491;-65
2022/11/20 00:29:11;;;;;;;26.90;14.63;;;;;;;;;;5072648;28;20027;-64
2022/11/20 00:31:37;;;;;;;31.02;15.52;;;;;;;;;;5071799;28;20036;-65
2022/11/20 00:34:03;;;;;;;28.27;16.50;;;;;;;;;;5071645;28;20434;-64
2022/11/20 00:36:32;;;;;;;27.23;16.45;;;;;;;;;;5072661;28;20028;-64
2022/11/20 00:38:58;;;;;;;31.83;17.35;;;;;;;;;;5071413;28;20040;-62
2022/11/20 00:41:25;;;;;;;31.38;16.48;;;;;;;;;;5072305;28;20087;-64
2022/11/20 00:43:54;;;;;;;31.27;15.68;;;;;;;;;;5060854;28;20036;-64
2022/11/20 00:46:22;;;;;;;29.58;16.38;;;;;;;;;;5072465;28;20024;-64
2022/11/20 00:48:48;;;;;;;28.15;16.52;;;;;;;;;;5072475;28;20051;-65
2022/11/20 00:51:15;;;;;;;27.33;15.98;;;;;;;;;;5072278;28;20035;-65
2022/11/20 00:53:41;;;;;;;29.65;16.02;;;;;;;;;;5071534;28;20096;-64
2022/11/20 00:56:10;;;;;;;29.02;15.98;;;;;;;;;;5072319;28;20017;-65
2022/11/20 00:58:37;;;;;;;30.13;17.00;;;;;;;;;;5072154;28;20028;-64
2022/11/20 01:01:05;;;;;;;29.17;16.48;;;;;;;;;;5072651;28;20024;-66
2022/11/20 01:03:32;;;;;;;29.90;16.20;;;;;;;;;;5071485;28;20027;-65
2022/11/20 01:06:02;;;;;;;28.92;17.55;;;;;;;;;;5071959;28;20534;-63
2022/11/20 01:08:37;;;;;;;30.13;16.70;;;;;;;;;;5072521;28;20425;-63
2022/11/20 01:11:04;;;;;;;32.30;16.27;;;;;;;;;;5058192;28;20105;-66
2022/11/20 01:13:36;;;;;;;31.65;17.55;;;;;;;;;;5051443;28;20033;-65
2022/11/20 01:16:18;;;;;;;28.55;15.63;;;;;;;;;;5052089;28;20075;-64
2022/11/20 01:18:46;;;;;;;31.60;16.13;;;;;;;;;;5052259;28;20032;-65
2022/11/20 01:21:15;;;;;;;27.45;15.75;;;;;;;;;;5052280;28;20107;-65
2022/11/20 01:23:42;;;;;;;31.00;16.88;;;;;;;;;;5051383;28;20025;-67
2022/11/20 01:26:09;;;;;;;28.98;16.23;;;;;;;;;;5052090;28;20025;-65
2022/11/20 01:28:36;;;;;;;29.00;16.95;;;;;;;;;;5052100;28;20036;-64
2022/11/20 01:31:02;;;;;;;31.33;17.40;;;;;;;;;;5051910;28;20060;-64
2022/11/20 01:33:28;;;;;;;32.30;16.67;;;;;;;;;;5050913;28;20407;-64
2022/11/20 01:36:03;;;;;;;30.55;17.65;;;;;;;;;;5051823;28;20104;-65
2022/11/20 01:38:29;;;;;;;28.70;16.70;;;;;;;;;;5059589;28;20042;-64
2022/11/20 01:40:55;;;;;;;31.10;17.20;;;;;;;;;;5071899;28;20033;-65
2022/11/20 01:43:21;;;;;;;28.83;16.20;;;;;;;;;;5073007;28;20056;-63
2022/11/20 01:45:57;;;;;;;30.88;17.48;;;;;;;;;;5075718;28;20113;-64
2022/11/20 01:48:24;;;;;;;28.67;16.55;;;;;;;;;;5076161;28;20668;-64
2022/11/20 01:50:51;;;;;;;32.13;17.00;;;;;;;;;;5074641;28;20021;-65
2022/11/20 01:53:19;;;;;;;31.23;16.98;;;;;;;;;;5075261;28;20365;-64
2022/11/20 01:55:48;;;;;;;29.15;15.98;;;;;;;;;;5075718;28;20025;-65
2022/11/20 01:58:14;;;;;;;29.58;17.30;;;;;;;;;;5074538;28;20443;-64
2022/11/20 02:00:41;;;;;;;30.73;17.45;;;;;;;;;;5075479;28;20036;-63
2022/11/20 02:03:12;;;;;;;31.13;17.15;;;;;;;;;;5074738;28;20027;-64
2022/11/20 02:05:41;;;;;;;28.67;16.23;;;;;;;;;;5072281;28;20059;-63
2022/11/20 02:08:07;;;;;;;36.22;19.63;;;;;;;;;;5055411;28;20032;-65
2022/11/20 02:10:33;;;;;;;32.90;18.48;;;;;;;;;;5055302;28;20025;-64
2022/11/20 02:15:44;;;;;;;29.55;17.30;;;;;;;;;;5055178;28;20044;-63
2022/11/20 02:18:11;;;;;;;29.00;17.10;;;;;;;;;;5055204;28;20049;-63
2022/11/20 02:20:38;;;;;;;30.50;16.17;;;;;;;;;;5054131;28;20036;-64
2022/11/20 02:23:20;;;;;;;31.48;17.98;;;;;;;;;;5054346;28;20203;-64
2022/11/20 02:25:46;;;;;;;31.17;17.55;;;;;;;;;;5053926;28;20029;-64
2022/11/20 02:28:12;;;;;;;33.80;18.65;;;;;;;;;;5053736;28;20546;-64
2022/11/20 02:30:38;;;;;;;34.35;18.65;;;;;;;;;;5054851;28;20028;-64
2022/11/20 02:33:04;;;;;;;33.55;18.88;;;;;;;;;;5054026;28;20029;-63
2022/11/20 02:35:30;;;;;;;29.77;17.45;;;;;;;;;;5073303;28;20020;-65
2022/11/20 02:37:57;;;;;;;30.70;16.83;;;;;;;;;;5074745;28;20020;-63
2022/11/20 02:40:23;;;;;;;31.73;18.13;;;;;;;;;;5075047;28;20029;-63
2022/11/20 02:42:52;;;;;;;32.33;18.25;;;;;;;;;;5073632;28;20032;-63
2022/11/20 02:45:18;;;;;;;31.17;18.77;;;;;;;;;;5072958;28;20044;-63
2022/11/20 02:47:44;;;;;;;30.40;17.27;;;;;;;;;;5075030;28;20028;-63
2022/11/20 02:50:12;;;;;;;29.60;16.33;;;;;;;;;;5075080;28;20595;-63
2022/11/20 02:52:38;;;;;;;29.95;17.80;;;;;;;;;;5074959;28;20040;-63
2022/11/20 02:55:04;;;;;;;31.75;17.02;;;;;;;;;;5073233;28;20052;-63
2022/11/20 02:57:30;;;;;;;36.00;18.98;;;;;;;;;;5074682;28;20048;-63
2022/11/20 02:59:56;;;;;;;34.67;19.63;;;;;;;;;;5074639;28;20055;-64
2022/11/20 03:02:22;;;;;;;30.55;19.42;;;;;;;;;;5064524;28;20027;-63
2022/11/20 03:04:48;;;;;;;31.23;17.27;;;;;;;;;;5053609;28;20386;-63
2022/11/20 03:07:14;;;;;;;29.20;17.58;;;;;;;;;;5053125;28;20024;-64
2022/11/20 03:09:40;;;;;;;31.92;19.23;;;;;;;;;;5054190;28;20029;-65
2022/11/20 03:12:06;;;;;;;34.55;17.15;;;;;;;;;;5054298;28;20426;-65
2022/11/20 03:14:32;;;;;;;30.33;16.20;;;;;;;;;;5053477;28;20422;-63
2022/11/20 03:16:58;;;;;;;29.15;17.23;;;;;;;;;;5054272;28;20028;-63
2022/11/20 03:19:24;;;;;;;31.80;16.63;;;;;;;;;;5053989;28;20025;-64
2022/11/20 03:21:50;;;;;;;33.30;17.60;;;;;;;;;;5054281;28;20062;-63
2022/11/20 03:24:17;;;;;;;30.45;17.88;;;;;;;;;;5053334;28;20385;-62
2022/11/20 03:26:43;;;;;;;32.25;17.95;;;;;;;;;;5054264;28;20021;-63
2022/11/20 03:29:09;;;;;;;32.08;18.83;;;;;;;;;;5054218;28;20485;-63
2022/11/20 03:31:37;;;;;;;31.20;18.75;;;;;;;;;;5054070;28;20083;-63
2022/11/20 03:34:04;;;;;;;29.67;16.73;;;;;;;;;;5053060;28;20033;-63
2022/11/20 03:36:30;;;;;;;31.48;16.23;;;;;;;;;;5052611;28;20049;-64
2022/11/20 03:38:56;;;;;;;32.38;16.52;;;;;;;;;;5062464;28;20029;-64
2022/11/20 03:41:28;;;;;;;31.58;17.52;;;;;;;;;;5073508;28;20111;-64
2022/11/20 03:43:55;;;;;;;31.92;17.70;;;;;;;;;;5071443;28;20042;-64
2022/11/20 03:46:21;;;;;;;31.63;18.20;;;;;;;;;;5073672;28;20056;-64
2022/11/20 03:48:47;;;;;;;32.30;19.20;;;;;;;;;;5073520;28;20028;-63
2022/11/20 03:51:21;;;;;;;31.02;16.83;;;;;;;;;;5073316;28;20025;-64
2022/11/20 03:53:47;;;;;;;30.10;16.40;;;;;;;;;;5055155;28;20074;-64
2022/11/20 03:56:16;;;;;;;29.10;16.70;;;;;;;;;;5053456;28;20025;-64
2022/11/20 03:58:42;;;;;;;28.55;16.10;;;;;;;;;;5053395;28;20017;-64
2022/11/20 04:01:09;;;;;;;31.67;17.98;;;;;;;;;;5053280;28;20032;-63
2022/11/20 04:03:36;;;;;;;33.08;17.20;;;;;;;;;;5052472;28;20143;-63
2022/11/20 04:06:03;;;;;;;30.40;16.23;;;;;;;;;;5055478;28;20085;-64
2022/11/20 04:08:30;;;;;;;29.27;17.23;;;;;;;;;;5073080;28;20104;-64
2022/11/20 04:10:56;;;;;;;31.75;17.02;;;;;;;;;;5072902;28;20147;-63
2022/11/20 04:13:22;;;;;;;29.98;17.80;;;;;;;;;;5072574;28;20107;-64
2022/11/20 04:15:48;;;;;;;28.95;16.95;;;;;;;;;;5072872;28;20023;-66
2022/11/20 04:18:14;;;;;;;31.55;17.70;;;;;;;;;;5072797;28;20075;-64
2022/11/20 04:20:41;;;;;;;33.15;18.00;;;;;;;;;;5061070;28;20025;-64
2022/11/20 04:23:07;;;;;;;31.50;17.08;;;;;;;;;;5051165;28;20088;-63
2022/11/20 04:25:33;;;;;;;30.83;17.45;;;;;;;;;;5052804;28;20033;-63
2022/11/20 04:27:59;;;;;;;30.70;17.50;;;;;;;;;;5052775;28;20025;-62
2022/11/20 04:30:25;;;;;;;32.97;17.15;;;;;;;;;;5052406;28;20477;-64
2022/11/20 04:32:50;;;;;;;31.90;18.55;;;;;;;;;;5052218;28;20083;-64
2022/11/20 04:35:16;;;;;;;30.13;17.75;;;;;;;;;;5068231;28;20503;-63
2022/11/20 04:37:42;;;;;;;31.27;16.60;;;;;;;;;;5072447;28;20040;-64
2022/11/20 04:40:09;;;;;;;29.55;17.67;;;;;;;;;;5072470;28;20016;-64
2022/11/20 04:42:35;;;;;;;29.08;18.48;;;;;;;;;;5072185;28;20111;-64
2022/11/20 04:45:01;;;;;;;29.88;16.33;;;;;;;;;;5072066;28;20107;-63
2022/11/20 04:47:27;;;;;;;36.08;19.45;;;;;;;;;;5069978;28;20186;-63
2022/11/20 04:49:53;;;;;;;34.10;19.50;;;;;;;;;;5050906;28;20457;-63
2022/11/20 04:52:19;;;;;;;33.15;17.40;;;;;;;;;;5052171;28;20430;-63
2022/11/20 04:54:45;;;;;;;31.35;19.17;;;;;;;;;;5052150;28;20051;-63
2022/11/20 04:57:11;;;;;;;29.63;16.75;;;;;;;;;;5049356;22;20129;-64
2022/11/20 04:59:37;;;;;;;30.10;18.23;;;;;;;;;;5012470;28;20053;-64
2022/11/20 05:02:03;;;;;;;30.90;18.02;;;;;;;;;;5012548;28;20045;-64
2022/11/20 05:04:29;;;;;;;29.55;18.45;;;;;;;;;;4994789;28;20041;-61
2022/11/20 05:06:54;;;;;;;31.20;16.67;;;;;;;;;;5012429;28;20022;-62
2022/11/20 05:09:20;;;;;;;31.13;17.65;;;;;;;;;;4994682;28;20105;-64
2022/11/20 05:11:46;;;;;;;32.20;19.48;;;;;;;;;;4994471;28;20474;-63
2022/11/20 05:14:12;;;;;;;35.00;18.45;;;;;;;;;;4994623;28;20108;-63
2022/11/20 05:16:39;;;;;;;32.75;18.98;;;;;;;;;;5012168;28;20105;-64
2022/11/20 05:19:05;;;;;;;32.17;19.00;;;;;;;;;;5011868;28;20018;-65
2022/11/20 05:21:32;;;;;;;33.15;18.90;;;;;;;;;;5012129;28;20105;-63
2022/11/20 05:23:58;;;;;;;35.75;20.77;;;;;;;;;;5011892;28;20425;-63
2022/11/20 05:26:24;;;;;;;36.35;20.42;;;;;;;;;;4994550;28;20044;-64
2022/11/20 05:28:50;;;;;;;40.70;20.73;;;;;;;;;;5012296;28;20045;-65
2022/11/20 05:31:20;;;;;;;41.90;21.95;;;;;;;;;;5011940;28;20022;-64
2022/11/20 05:33:47;;;;;;;47.35;21.35;;;;;;;;;;5011774;28;20022;-62
2022/11/20 05:36:13;;;;;;;40.30;21.13;;;;;;;;;;5007429;28;20410;-64
2022/11/20 05:38:40;;;;;;;44.15;21.55;;;;;;;;;;5011056;28;20022;-62
2022/11/20 05:41:07;;;;;;;59.70;21.52;;;;;;;;;;4992417;28;20031;-57
2022/11/20 05:43:34;;;;;;;43.17;21.92;;;;;;;;;;4997693;28;20022;-64
2022/11/20 05:46:00;;;;;;;49.08;21.48;;;;;;;;;;5011868;28;20030;-63
2022/11/20 05:48:26;;;;;;;42.50;24.10;;;;;;;;;;5011855;28;20402;-63
2022/11/20 05:50:52;;;;;;;46.50;22.20;;;;;;;;;;5011915;28;20026;-62
2022/11/20 05:53:18;;;;;;;40.55;21.35;;;;;;;;;;4995903;28;20022;-63
2022/11/20 05:55:47;;;;;;;51.83;24.10;;;;;;;;;;4975000;28;20089;-65
2022/11/20 05:58:13;;;;;;;47.53;21.30;;;;;;;;;;4983685;28;20117;-64
2022/11/20 06:00:39;;;;;;;56.40;22.70;;;;;;;;;;5011761;28;20615;-63
2022/11/20 06:03:05;;;;;;;52.45;22.95;;;;;;;;;;5011939;28;20030;-63
2022/11/20 06:05:31;;;;;;;49.67;23.83;;;;;;;;;;4994198;28;20445;-63
2022/11/20 06:07:57;;;;;;;53.25;22.48;;;;;;;;;;4994307;28;20051;-63
2022/11/20 06:10:23;;;;;;;60.83;26.05;;;;;;;;;;4978572;28;20066;-63
2022/11/20 06:12:48;;;;;;;51.33;24.35;;;;;;;;;;5001740;28;20026;-63
2022/11/20 06:15:14;;;;;;;54.75;27.67;;;;;;;;;;5011763;28;20018;-63
2022/11/20 06:17:40;;;;;;;71.80;27.27;;;;;;;;;;5011284;28;20470;-63
2022/11/20 06:20:07;;;;;;;49.03;24.60;;;;;;;;;;5010426;28;20044;-64
2022/11/20 06:22:33;;;;;;;48.35;26.73;;;;;;;;;;5011491;28;20474;-63
2022/11/20 06:24:59;;;;;;;54.90;26.25;;;;;;;;;;5011446;28;20533;-63
2022/11/20 06:27:25;;;;;;;55.97;26.70;;;;;;;;;;4993318;28;20018;-62
2022/11/20 06:29:51;;;;;;;63.35;26.10;;;;;;;;;;5012701;28;20444;-64
2022/11/20 06:32:17;;;;;;;59.22;26.40;;;;;;;;;;5015079;28;20036;-63
2022/11/20 06:34:43;;;;;;;62.97;28.83;;;;;;;;;;5014815;28;20486;-64
2022/11/20 06:37:09;;;;;;;59.90;26.95;;;;;;;;;;4997326;28;20030;-63
2022/11/20 06:39:35;;;;;;;53.22;27.30;;;;;;;;;;4997490;28;20121;-63
2022/11/20 06:42:01;;;;;;;57.60;28.27;;;;;;;;;;5014929;28;20394;-64
2022/11/20 06:44:27;;;;;;;65.20;29.70;;;;;;;;;;5014754;28;20065;-64
2022/11/20 06:46:53;;;;;;;62.15;29.33;;;;;;;;;;4997375;28;20029;-64
2022/11/20 06:49:19;;;;;;;74.65;31.30;;;;;;;;;;5014770;28;20113;-65
2022/11/20 06:51:45;;;;;;;72.75;32.35;;;;;;;;;;4997130;28;20026;-63
2022/11/20 06:54:11;;;;;;;68.30;30.73;;;;;;;;;;4997130;28;20032;-64
2022/11/20 06:56:37;;;;;;;58.60;29.80;;;;;;;;;;5014619;28;20046;-62
2022/11/20 06:59:07;;;;;;;93.45;30.48;;;;;;;;;;5015015;28;20100;-64
2022/11/20 07:01:33;;;;;;;69.38;29.65;;;;;;;;;;5013336;28;20030;-63
2022/11/20 07:03:59;;;;;;;106.82;33.47;;;;;;;;;;5014424;28;20030;-63
2022/11/20 07:06:25;;;;;;;73.50;33.55;;;;;;;;;;5014657;28;20497;-63
2022/11/20 07:08:54;;;;;;;79.18;33.20;;;;;;;;;;4997136;28;20041;-63
2022/11/20 07:11:20;;;;;;;62.03;29.42;;;;;;;;;;4996508;28;20022;-61
2022/11/20 07:13:46;;;;;;;68.63;31.65;;;;;;;;;;5014276;28;20026;-65
2022/11/20 07:16:12;;;;;;;63.67;31.02;;;;;;;;;;4996866;28;20471;-63
2022/11/20 07:18:38;;;;;;;59.95;29.90;;;;;;;;;;4997150;28;20058;-62
2022/11/20 07:21:05;;;;;;;86.22;32.90;;;;;;;;;;5012554;28;20546;-63
2022/11/20 07:23:31;;;;;;;74.20;34.55;;;;;;;;;;5016365;28;20034;-62
2022/11/20 07:25:58;;;;;;;72.05;31.27;;;;;;;;;;5027901;28;20557;-62
2022/11/20 07:28:24;;;;;;;70.03;28.33;;;;;;;;;;5014113;28;20029;-62
2022/11/20 07:30:53;;;;;;;106.15;31.45;;;;;;;;;;5014196;28;20397;-62
2022/11/20 07:33:20;;;;;;;90.05;29.75;;;;;;;;;;5013446;28;20597;-62
2022/11/20 07:35:46;;;;;;;119.38;27.90;;;;;;;;;;5013763;28;20402;-62
2022/11/20 07:38:12;;;;;;;88.28;26.02;;;;;;;;;;5014025;28;20470;-63
2022/11/20 07:40:38;;;;;;;68.70;25.63;;;;;;;;;;5013691;28;20474;-63
2022/11/20 07:43:04;;;;;;;78.28;23.55;;;;;;;;;;4996379;28;20063;-62
2022/11/20 07:45:30;;;;;;;46.08;20.60;;;;;;;;;;5013651;28;20482;-63
2022/11/20 07:47:56;;;;;;;74.97;23.95;;;;;;;;;;5012571;28;20101;-64
2022/11/20 07:50:22;;;;;;;70.80;23.98;;;;;;;;;;4996203;28;20022;-64
2022/11/20 07:52:48;;;;;;;73.00;23.27;;;;;;;;;;5013827;28;20029;-63
2022/11/20 07:55:14;;;;;;;81.00;25.55;;;;;;;;;;5013384;28;20096;-64
2022/11/20 07:57:40;;;;;;;51.22;25.35;;;;;;;;;;4995601;28;20533;-63
2022/11/20 08:00:08;;;;;;;45.67;23.73;;;;;;;;;;5013620;28;20022;-60
2022/11/20 08:02:34;;;;;;;;;;;;;;;;;;4996521;28;20033;-64
2022/11/20 08:05:00;;;;;;;56.00;23.92;;;;;;;;;;5013446;28;20369;-64
2022/11/20 08:07:26;;;;;;;46.97;22.73;;;;;;;;;;5013278;28;20026;-64
2022/11/20 08:09:52;;;;;;;48.72;25.25;;;;;;;;;;5013075;28;20474;-65
2022/11/20 08:15:05;;;;;;;47.92;23.80;;;;;;;;;;4993940;28;20100;-65
2022/11/20 08:17:31;;;;;;;43.15;23.25;;;;;;;;;;4993656;28;20049;-65
2022/11/20 08:19:57;;;;;;;48.13;22.60;;;;;;;;;;4976684;28;20026;-64
2022/11/20 08:22:24;;;;;;;42.35;23.38;;;;;;;;;;4993688;28;20031;-65
2022/11/20 08:24:50;;;;;;;41.22;21.40;;;;;;;;;;4993362;28;20057;-66
2022/11/20 08:27:16;;;;;;;43.55;23.77;;;;;;;;;;4993436;28;20089;-65
2022/11/20 08:29:42;;;;;;;43.63;22.42;;;;;;;;;;4975982;28;20038;-65
2022/11/20 08:32:08;;;;;;;50.95;24.13;;;;;;;;;;4993202;28;20387;-65
2022/11/20 08:34:34;;;;;;;42.42;22.45;;;;;;;;;;4992921;28;20022;-62
2022/11/20 08:37:02;;;;;;;43.83;23.10;;;;;;;;;;5016993;28;20021;-65
2022/11/20 08:39:28;;;;;;;42.03;22.93;;;;;;;;;;5032672;28;20025;-63
2022/11/20 08:41:54;;;;;;;44.83;23.15;;;;;;;;;;5006091;28;20513;-63
2022/11/20 08:44:20;;;;;;;45.63;22.95;;;;;;;;;;4994621;28;20034;-63
2022/11/20 08:46:46;;;;;;;46.00;23.52;;;;;;;;;;4994491;28;20553;-60
2022/11/20 08:49:13;;;;;;;39.85;22.13;;;;;;;;;;5012682;28;20033;-63
2022/11/20 08:51:40;;;;;;;39.40;21.08;;;;;;;;;;5012266;28;20154;-64
2022/11/20 08:54:06;;;;;;;38.60;22.80;;;;;;;;;;5012160;28;20026;-66
2022/11/20 08:56:32;;;;;;;42.67;22.67;;;;;;;;;;5011968;28;20026;-64
2022/11/20 08:59:01;;;;;;;39.08;21.13;;;;;;;;;;5012439;28;20057;-64
2022/11/20 09:01:28;;;;;;;43.83;24.00;;;;;;;;;;4994601;28;20121;-63
2022/11/20 09:03:59;;;;;;;40.55;22.83;;;;;;;;;;5012115;28;20064;-64
2022/11/20 09:06:25;;;;;;;42.72;24.08;;;;;;;;;;4989889;28;20037;-63
2022/11/20 09:08:54;;;;;;;46.40;25.83;;;;;;;;;;5001917;28;20026;-64
2022/11/20 09:11:21;;;;;;;41.70;25.60;;;;;;;;;;4993067;28;20030;-66
2022/11/20 09:13:48;;;;;;;43.53;24.75;;;;;;;;;;4993050;28;20046;-63
2022/11/20 09:16:14;;;;;;;48.13;26.08;;;;;;;;;;4975794;28;20442;-62
2022/11/20 09:18:42;;;;;;;44.67;24.25;;;;;;;;;;4975770;28;20057;-65
2022/11/20 09:21:12;;;;;;;45.70;26.95;;;;;;;;;;4975799;28;20026;-63
2022/11/20 09:23:39;;;;;;;41.85;25.42;;;;;;;;;;4992895;28;20109;-64
2022/11/20 09:26:06;;;;;;;43.13;24.13;;;;;;;;;;4992892;28;20037;-64
2022/11/20 09:28:32;;;;;;;40.10;22.85;;;;;;;;;;4975673;28;20487;-63
2022/11/20 09:30:58;;;;;;;47.63;24.77;;;;;;;;;;4992943;28;20089;-64
2022/11/20 09:33:24;;;;;;;46.65;25.77;;;;;;;;;;5011038;28;20026;-63
2022/11/20 09:35:50;;;;;;;42.15;25.65;;;;;;;;;;5012044;28;20030;-65
2022/11/20 09:38:16;;;;;;;45.67;24.45;;;;;;;;;;4995114;28;20050;-64
2022/11/20 09:40:54;;;;;;;43.90;25.77;;;;;;;;;;5012345;28;20033;-65
2022/11/20 09:43:24;;;;;;;40.67;22.30;;;;;;;;;;5012435;28;20022;-64
2022/11/20 09:46:17;;;;;;;42.83;25.65;;;;;;;;;;4661592;28;9999733;-63
2022/11/20 09:48:43;;;;;;;38.67;21.90;;;;;;;;;;4979253;28;20068;-64
2022/11/20 09:51:22;;;;;;;37.95;21.90;;;;;;;;;;5009422;28;20471;-64
2022/11/20 09:53:51;;;;;;;38.75;22.77;;;;;;;;;;5009329;28;20097;-64
2022/11/20 09:56:17;;;;;;;37.60;24.45;;;;;;;;;;5009007;28;20046;-64
2022/11/20 09:58:46;;;;;;;37.10;22.75;;;;;;;;;;4991873;28;20030;-64
2022/11/20 10:01:14;;;;;;;35.40;20.10;;;;;;;;;;4992126;28;20061;-64
2022/11/20 10:03:49;;;;;;;34.83;20.40;;;;;;;;;;4976708;28;20038;-65
2022/11/20 10:06:18;;;;;;;33.83;20.75;;;;;;;;;;4997641;28;20214;-64
2022/11/20 10:09:05;;;;;;;34.90;19.48;;;;;;;;;;4997146;28;20045;-62
2022/11/20 10:11:39;;;;;;;31.63;17.30;;;;;;;;;;4977289;28;20030;-63
2022/11/20 10:14:05;;;;;;;33.10;18.95;;;;;;;;;;4976763;28;20145;-64
2022/11/20 10:16:30;;;;;;;34.83;20.08;;;;;;;;;;4993635;28;20673;-63
2022/11/20 10:19:15;;;;;;;36.72;21.05;;;;;;;;;;4977072;28;20031;-66
2022/11/20 10:21:41;;;;;;;39.80;20.85;;;;;;;;;;4995017;28;20037;-64
2022/11/20 10:24:28;;;;;;;31.42;20.23;;;;;;;;;;4995275;28;20048;-65
2022/11/20 10:27:23;;;;;;;34.15;18.63;;;;;;;;;;5012826;28;20080;-64
2022/11/20 10:29:59;;;;;;;33.33;18.38;;;;;;;;;;4908806;28;20044;-66
2022/11/20 10:32:30;;;;;;;33.00;19.27;;;;;;;;;;5011979;28;20021;-65
2022/11/20 10:35:15;;;;;;;32.85;19.55;;;;;;;;;;5012063;28;20018;-65
2022/11/20 10:37:42;;;;;;;36.13;19.58;;;;;;;;;;4995070;28;20084;-65
2022/11/20 10:40:08;;;;;;;34.55;20.23;;;;;;;;;;5012329;28;20022;-64
2022/11/20 10:42:45;;;;;;;33.55;19.67;;;;;;;;;;4995279;28;20397;-64
2022/11/20 10:45:19;;;;;;;33.13;20.45;;;;;;;;;;5012137;28;20544;-64
2022/11/20 10:47:45;;;;;;;28.98;17.95;;;;;;;;;;5013734;28;20030;-64
2022/11/20 10:50:13;;;;;;;30.85;18.08;;;;;;;;;;5013702;28;20490;-63
2022/11/20 10:52:49;;;;;;;36.85;22.02;;;;;;;;;;5014933;28;20060;-63
2022/11/20 10:55:18;;;;;;;30.98;19.52;;;;;;;;;;5014663;28;20069;-64
2022/11/20 10:58:03;;;;;;;32.05;19.75;;;;;;;;;;5026962;23;20045;-66
2022/11/20 11:00:32;;;;;;;31.83;19.23;;;;;;;;;;5032954;28;20445;-67
2022/11/20 11:03:04;;;;;;;31.42;18.40;;;;;;;;;;5014829;28;20394;-68
2022/11/20 11:05:46;;;;;;;32.50;19.15;;;;;;;;;;5033264;28;20057;-66
2022/11/20 11:08:16;;;;;;;33.10;19.35;;;;;;;;;;5026977;28;20026;-68
2022/11/20 11:10:48;;;;;;;26.77;18.00;;;;;;;;;;5032262;28;20029;-68
2022/11/20 11:13:25;;;;;;;27.70;17.95;;;;;;;;;;5020851;28;20062;-67
2022/11/20 11:15:51;;;;;;;27.08;16.98;;;;;;;;;;5012566;28;20076;-68
2022/11/20 11:18:27;;;;;;;29.63;18.13;;;;;;;;;;5013093;28;20022;-68
2022/11/20 11:20:54;;;;;;;27.98;18.52;;;;;;;;;;5013322;28;20101;-67
2022/11/20 11:23:40;;;;;;;26.92;17.10;;;;;;;;;;4995068;28;20564;-66
2022/11/20 11:26:07;;;;;;;28.27;17.27;;;;;;;;;;5013011;28;20045;-68
2022/11/20 11:28:33;;;;;;;25.85;17.33;;;;;;;;;;5012939;28;20026;-65
2022/11/20 11:30:59;;;;;;;29.27;18.27;;;;;;;;;;5012437;28;20125;-67
2022/11/20 11:33:27;;;;;;;24.20;15.95;;;;;;;;;;4994722;28;20490;-64
2022/11/20 11:35:53;;;;;;;26.35;16.55;;;;;;;;;;5015708;28;20092;-68
2022/11/20 11:38:23;;;;;;;24.77;16.02;;;;;;;;;;5014350;28;20435;-65
2022/11/20 11:40:50;;;;;;;24.05;15.30;;;;;;;;;;5032174;28;20022;-66
2022/11/20 11:46:34;;;;;;;24.08;16.13;;;;;;;;;;5032406;28;20033;-66
2022/11/20 11:49:00;;;;;;;25.38;16.05;;;;;;;;;;5031806;28;20080;-66
2022/11/20 11:51:44;;;;;;;26.77;16.20;;;;;;;;;;5014340;28;20025;-66
2022/11/20 11:54:22;;;;;;;22.17;15.20;;;;;;;;;;5013863;28;20056;-64
2022/11/20 11:56:48;;;;;;;21.98;15.82;;;;;;;;;;5031702;28;20055;-66
2022/11/20 11:59:24;;;;;;;23.25;16.00;;;;;;;;;;5032007;28;20040;-67
2022/11/20 12:01:55;;;;;;;24.70;15.55;;;;;;;;;;5031884;28;20425;-67
2022/11/20 12:04:24;;;;;;;22.45;14.00;;;;;;;;;;5031635;28;20029;-66
2022/11/20 12:06:58;;;;;;;22.38;13.27;;;;;;;;;;5013875;28;20037;-65
2022/11/20 12:09:29;;;;;;;21.90;13.77;;;;;;;;;;5031588;28;20026;-66
2022/11/20 12:12:18;;;;;;;21.20;14.00;;;;;;;;;;5031834;28;20399;-67
2022/11/20 12:14:46;;;;;;;23.63;14.23;;;;;;;;;;5013866;28;20605;-66
2022/11/20 12:17:14;;;;;;;21.77;13.85;;;;;;;;;;5013746;28;20025;-66
2022/11/20 12:19:40;;;;;;;21.33;13.75;;;;;;;;;;5031529;28;20371;-66
2022/11/20 12:22:25;;;;;;;20.55;13.30;;;;;;;;;;5016666;28;20038;-67
2022/11/20 12:24:54;;;;;;;23.27;13.85;;;;;;;;;;5011380;28;20026;-64
2022/11/20 12:27:35;;;;;;;33.45;15.70;;;;;;;;;;5010434;28;20022;-67
2022/11/20 12:30:10;;;;;;;22.38;13.68;;;;;;;;;;5011374;28;20068;-67
2022/11/20 12:32:54;;;;;;;26.38;15.23;;;;;;;;;;5010013;28;20034;-66
2022/11/20 12:35:20;;;;;;;22.20;15.27;;;;;;;;;;5011856;28;20026;-67
2022/11/20 12:37:46;;;;;;;21.23;14.38;;;;;;;;;;5029216;28;20375;-67
2022/11/20 12:40:19;;;;;;;24.30;15.20;;;;;;;;;;5031713;28;20049;-67
2022/11/20 12:45:51;;;;;;;25.48;14.95;;;;;;;;;;4334729;28;10000624;-66
2022/11/20 12:48:20;;;;;;;24.83;16.02;;;;;;;;;;5030420;28;20029;-66
2022/11/20 12:50:49;;;;;;;25.58;14.27;;;;;;;;;;5011031;28;20161;-66
2022/11/20 12:53:33;;;;;;;23.83;15.55;;;;;;;;;;5015606;28;20109;-66
2022/11/20 12:56:18;;;;;;;23.10;14.18;;;;;;;;;;5031013;28;20401;-68
2022/11/20 12:59:14;;;;;;;22.95;13.80;;;;;;;;;;4682983;28;9999708;-66
2022/11/20 13:01:49;;;;;;;27.15;14.95;;;;;;;;;;4998788;28;20080;-67
2022/11/20 13:04:15;;;;;;;27.65;15.80;;;;;;;;;;5008536;28;20029;-67
2022/11/20 13:06:41;;;;;;;28.70;16.95;;;;;;;;;;5008213;28;20029;-66
2022/11/20 13:09:12;;;;;;;26.20;16.98;;;;;;;;;;5012843;28;20073;-67
2022/11/20 13:11:57;;;;;;;26.02;17.10;;;;;;;;;;5027971;28;20029;-67
2022/11/20 13:14:37;;;;;;;27.52;17.15;;;;;;;;;;5009822;28;20024;-67
2022/11/20 13:17:06;;;;;;;27.65;16.83;;;;;;;;;;5028030;28;20021;-66
2022/11/20 13:19:33;;;;;;;28.73;18.05;;;;;;;;;;5027880;28;20029;-67
2022/11/20 13:21:59;;;;;;;32.03;18.75;;;;;;;;;;5027627;28;20039;-67
2022/11/20 13:24:27;;;;;;;33.30;20.33;;;;;;;;;;5027387;28;20104;-65
2022/11/20 13:27:02;;;;;;;30.83;19.13;;;;;;;;;;5010184;28;20028;-67
2022/11/20 13:29:29;;;;;;;32.88;20.25;;;;;;;;;;5009827;28;20045;-66
2022/11/20 13:32:14;;;;;;;39.50;23.70;;;;;;;;;;5028100;28;20026;-68
2022/11/20 13:34:40;;;;;;;42.42;26.13;;;;;;;;;;5010360;28;20022;-66
2022/11/20 13:37:24;;;;;;;40.25;25.00;;;;;;;;;;5027613;28;20104;-66
2022/11/20 13:39:50;;;;;;;44.17;26.25;;;;;;;;;;5030670;28;20025;-67
2022/11/20 13:42:16;;;;;;;38.60;22.85;;;;;;;;;;5031907;28;20037;-66
2022/11/20 13:44:47;;;;;;;41.83;25.10;;;;;;;;;;5032221;28;20053;-66
2022/11/20 13:47:26;;;;;;;43.65;25.17;;;;;;;;;;5032962;28;20115;-66
2022/11/20 13:49:54;;;;;;;41.55;24.70;;;;;;;;;;5033937;28;20026;-66
2022/11/20 13:52:30;;;;;;;40.80;23.88;;;;;;;;;;4886027;28;10000531;-65
2022/11/20 13:55:16;;;;;;;38.30;25.40;;;;;;;;;;5026886;28;20234;-66
2022/11/20 13:57:42;;;;;;;39.45;22.20;;;;;;;;;;5013465;28;20044;-66
2022/11/20 14:00:12;;;;;;;35.13;22.55;;;;;;;;;;5013423;28;20031;-67
2022/11/20 14:02:39;;;;;;;34.83;21.95;;;;;;;;;;5031150;28;20038;-67
2022/11/20 14:05:06;;;;;;;39.28;23.08;;;;;;;;;;5013358;28;20033;-65
2022/11/20 14:07:40;;;;;;;34.60;21.23;;;;;;;;;;5031027;28;20156;-67
2022/11/20 14:10:06;;;;;;;35.42;20.70;;;;;;;;;;5031219;28;20029;-66
2022/11/20 14:12:34;;;;;;;36.25;22.15;;;;;;;;;;5031372;28;20040;-67
2022/11/20 14:15:00;;;;;;;35.03;20.57;;;;;;;;;;5031010;28;20021;-66
2022/11/20 14:17:31;;;;;;;33.85;20.48;;;;;;;;;;5013550;28;20854;-66
2022/11/20 14:20:22;;;;;;;37.38;21.35;;;;;;;;;;5031040;28;20057;-66
2022/11/20 14:22:52;;;;;;;38.40;21.33;;;;;;;;;;5026736;28;20030;-66
2022/11/20 14:25:18;;;;;;;40.13;20.65;;;;;;;;;;4993335;28;20398;-67
2022/11/20 14:27:46;;;;;;;35.13;20.00;;;;;;;;;;5011065;28;20029;-67
2022/11/20 14:30:16;;;;;;;34.10;20.83;;;;;;;;;;4993469;28;20525;-66
2022/11/20 14:32:43;;;;;;;34.13;21.40;;;;;;;;;;4993413;28;20584;-67
2022/11/20 14:35:13;;;;;;;34.72;21.80;;;;;;;;;;5011695;28;20030;-67
2022/11/20 14:37:39;;;;;;;34.38;21.35;;;;;;;;;;5029101;28;20087;-66